sensor_id;sensor_type;location;lat;lon;timestamp;P1;durP1;ratioP1;P2;durP2;ratioP2
10934;SDS011;5520;45.752;4.874;2023-05-02T00:01:26;2.67;;;1.87;;
10934;SDS011;5520;45.752;4.874;2023-05-02T00:03:54;2.20;;;2.10;;
10934;SDS011;5520;45.752;4.874;2023-05-02T00:06:22;2.17;;;1.93;;
10934;SDS011;5520;45.752;4.874;2023-05-02T00:08:51;2.97;;;1.60;;
10934;SDS011;5520;45.752;4.874;2023-05-02T00:11:19;3.37;;;2.70;;
10934;SDS011;5520;45.752;4.874;2023-05-02T00:13:48;3.60;;;2.47;;
10934;SDS011;5520;45.752;4.874;2023-05-02T00:16:16;2.87;;;2.30;;
10934;SDS011;5520;45.752;4.874;2023-05-02T00:18:44;2.43;;;1.70;;
10934;SDS011;5520;45.752;4.874;2023-05-02T00:21:12;5.37;;;2.23;;
10934;SDS011;5520;45.752;4.874;2023-05-02T00:23:40;2.83;;;1.77;;
10934;SDS011;5520;45.752;4.874;2023-05-02T00:26:10;1.57;;;1.30;;
10934;SDS011;5520;45.752;4.874;2023-05-02T00:28:38;2.87;;;1.50;;
10934;SDS011;5520;45.752;4.874;2023-05-02T00:31:06;2.00;;;1.77;;
10934;SDS011;5520;45.752;4.874;2023-05-02T00:33:34;1.63;;;1.40;;
10934;SDS011;5520;45.752;4.874;2023-05-02T00:36:02;1.60;;;1.50;;
10934;SDS011;5520;45.752;4.874;2023-05-02T00:38:30;2.20;;;1.63;;
10934;SDS011;5520;45.752;4.874;2023-05-02T00:40:58;2.70;;;1.77;;
10934;SDS011;5520;45.752;4.874;2023-05-02T00:43:30;1.83;;;1.73;;
10934;SDS011;5520;45.752;4.874;2023-05-02T00:45:58;1.57;;;1.40;;
10934;SDS011;5520;45.752;4.874;2023-05-02T00:48:26;2.00;;;1.70;;
10934;SDS011;5520;45.752;4.874;2023-05-02T00:50:54;1.50;;;1.40;;
10934;SDS011;5520;45.752;4.874;2023-05-02T00:53:22;1.60;;;1.50;;
10934;SDS011;5520;45.752;4.874;2023-05-02T00:55:51;1.50;;;1.40;;
10934;SDS011;5520;45.752;4.874;2023-05-02T00:58:19;2.20;;;1.50;;
10934;SDS011;5520;45.752;4.874;2023-05-02T01:00:54;2.43;;;1.60;;
10934;SDS011;5520;45.752;4.874;2023-05-02T01:03:28;1.83;;;1.47;;
10934;SDS011;5520;45.752;4.874;2023-05-02T01:06:02;2.30;;;1.57;;
10934;SDS011;5520;45.752;4.874;2023-05-02T01:08:37;2.37;;;1.40;;
10934;SDS011;5520;45.752;4.874;2023-05-02T01:11:10;1.70;;;1.60;;
10934;SDS011;5520;45.752;4.874;2023-05-02T01:13:41;1.97;;;1.77;;
10934;SDS011;5520;45.752;4.874;2023-05-02T01:16:11;1.67;;;1.57;;
10934;SDS011;5520;45.752;4.874;2023-05-02T01:18:41;1.80;;;1.50;;
10934;SDS011;5520;45.752;4.874;2023-05-02T01:21:10;2.70;;;1.53;;
10934;SDS011;5520;45.752;4.874;2023-05-02T01:23:42;1.70;;;1.30;;
10934;SDS011;5520;45.752;4.874;2023-05-02T01:26:14;1.80;;;1.70;;
10934;SDS011;5520;45.752;4.874;2023-05-02T01:28:48;2.67;;;1.57;;
10934;SDS011;5520;45.752;4.874;2023-05-02T01:31:18;2.60;;;1.53;;
10934;SDS011;5520;45.752;4.874;2023-05-02T01:33:47;1.53;;;1.43;;
10934;SDS011;5520;45.752;4.874;2023-05-02T01:36:15;2.20;;;1.77;;
10934;SDS011;5520;45.752;4.874;2023-05-02T01:38:44;1.73;;;1.40;;
10934;SDS011;5520;45.752;4.874;2023-05-02T01:41:12;2.00;;;1.80;;
10934;SDS011;5520;45.752;4.874;2023-05-02T01:43:57;1.67;;;1.50;;
10934;SDS011;5520;45.752;4.874;2023-05-02T01:46:29;2.17;;;1.53;;
10934;SDS011;5520;45.752;4.874;2023-05-02T01:49:02;2.60;;;1.60;;
10934;SDS011;5520;45.752;4.874;2023-05-02T01:51:34;1.83;;;1.40;;
10934;SDS011;5520;45.752;4.874;2023-05-02T01:54:03;3.43;;;1.77;;
10934;SDS011;5520;45.752;4.874;2023-05-02T01:56:35;2.03;;;1.80;;
10934;SDS011;5520;45.752;4.874;2023-05-02T01:59:10;1.50;;;1.40;;
10934;SDS011;5520;45.752;4.874;2023-05-02T02:01:41;2.07;;;1.40;;
10934;SDS011;5520;45.752;4.874;2023-05-02T02:04:10;1.63;;;1.53;;
10934;SDS011;5520;45.752;4.874;2023-05-02T02:06:44;1.80;;;1.70;;
10934;SDS011;5520;45.752;4.874;2023-05-02T02:09:16;1.30;;;1.20;;
10934;SDS011;5520;45.752;4.874;2023-05-02T02:11:51;2.40;;;1.60;;
10934;SDS011;5520;45.752;4.874;2023-05-02T02:14:25;2.40;;;1.77;;
10934;SDS011;5520;45.752;4.874;2023-05-02T02:16:57;2.53;;;1.53;;
10934;SDS011;5520;45.752;4.874;2023-05-02T02:19:28;1.77;;;1.57;;
10934;SDS011;5520;45.752;4.874;2023-05-02T02:21:57;1.50;;;1.40;;
10934;SDS011;5520;45.752;4.874;2023-05-02T02:24:25;1.60;;;1.50;;
10934;SDS011;5520;45.752;4.874;2023-05-02T02:26:53;1.37;;;1.27;;
10934;SDS011;5520;45.752;4.874;2023-05-02T02:29:21;1.57;;;1.47;;
10934;SDS011;5520;45.752;4.874;2023-05-02T02:31:50;3.60;;;1.70;;
10934;SDS011;5520;45.752;4.874;2023-05-02T02:34:18;2.13;;;1.67;;
10934;SDS011;5520;45.752;4.874;2023-05-02T02:36:46;1.80;;;1.70;;
10934;SDS011;5520;45.752;4.874;2023-05-02T02:39:19;1.73;;;1.50;;
10934;SDS011;5520;45.752;4.874;2023-05-02T02:41:54;1.50;;;1.40;;
10934;SDS011;5520;45.752;4.874;2023-05-02T02:44:31;1.50;;;1.40;;
10934;SDS011;5520;45.752;4.874;2023-05-02T02:47:05;1.60;;;1.50;;
10934;SDS011;5520;45.752;4.874;2023-05-02T02:49:38;1.70;;;1.60;;
10934;SDS011;5520;45.752;4.874;2023-05-02T02:52:09;4.73;;;2.70;;
10934;SDS011;5520;45.752;4.874;2023-05-02T02:54:39;1.73;;;1.57;;
10934;SDS011;5520;45.752;4.874;2023-05-02T02:57:11;2.03;;;1.63;;
10934;SDS011;5520;45.752;4.874;2023-05-02T02:59:44;2.60;;;1.83;;
10934;SDS011;5520;45.752;4.874;2023-05-02T03:02:16;2.47;;;1.83;;
10934;SDS011;5520;45.752;4.874;2023-05-02T03:04:45;1.60;;;1.50;;
10934;SDS011;5520;45.752;4.874;2023-05-02T03:07:13;2.83;;;1.80;;
10934;SDS011;5520;45.752;4.874;2023-05-02T03:09:45;3.03;;;1.67;;
10934;SDS011;5520;45.752;4.874;2023-05-02T03:12:16;1.70;;;1.60;;
10934;SDS011;5520;45.752;4.874;2023-05-02T03:14:46;1.90;;;1.60;;
10934;SDS011;5520;45.752;4.874;2023-05-02T03:17:19;1.80;;;1.70;;
10934;SDS011;5520;45.752;4.874;2023-05-02T03:19:54;1.77;;;1.50;;
10934;SDS011;5520;45.752;4.874;2023-05-02T03:22:23;1.63;;;1.53;;
10934;SDS011;5520;45.752;4.874;2023-05-02T03:24:51;2.87;;;1.83;;
10934;SDS011;5520;45.752;4.874;2023-05-02T03:27:21;2.07;;;1.90;;
10934;SDS011;5520;45.752;4.874;2023-05-02T03:29:52;2.53;;;1.80;;
10934;SDS011;5520;45.752;4.874;2023-05-02T03:32:21;2.07;;;1.87;;
10934;SDS011;5520;45.752;4.874;2023-05-02T03:34:52;3.10;;;2.30;;
10934;SDS011;5520;45.752;4.874;2023-05-02T03:37:26;2.30;;;2.10;;
10934;SDS011;5520;45.752;4.874;2023-05-02T03:39:57;1.90;;;1.73;;
10934;SDS011;5520;45.752;4.874;2023-05-02T03:45:54;2.83;;;2.00;;
10934;SDS011;5520;45.752;4.874;2023-05-02T03:48:24;2.10;;;1.90;;
10934;SDS011;5520;45.752;4.874;2023-05-02T03:50:53;5.23;;;2.00;;
10934;SDS011;5520;45.752;4.874;2023-05-02T03:53:21;3.00;;;2.00;;
10934;SDS011;5520;45.752;4.874;2023-05-02T03:55:51;2.70;;;2.00;;
10934;SDS011;5520;45.752;4.874;2023-05-02T03:58:21;2.40;;;2.20;;
10934;SDS011;5520;45.752;4.874;2023-05-02T04:00:53;2.97;;;2.50;;
10934;SDS011;5520;45.752;4.874;2023-05-02T04:03:25;3.70;;;1.87;;
10934;SDS011;5520;45.752;4.874;2023-05-02T04:05:55;4.67;;;1.90;;
10934;SDS011;5520;45.752;4.874;2023-05-02T04:08:23;2.90;;;1.87;;
10934;SDS011;5520;45.752;4.874;2023-05-02T04:10:51;3.83;;;1.93;;
10934;SDS011;5520;45.752;4.874;2023-05-02T04:13:22;2.57;;;2.20;;
10934;SDS011;5520;45.752;4.874;2023-05-02T04:15:50;2.60;;;2.17;;
10934;SDS011;5520;45.752;4.874;2023-05-02T04:18:18;3.43;;;2.13;;
10934;SDS011;5520;45.752;4.874;2023-05-02T04:20:50;2.30;;;2.10;;
10934;SDS011;5520;45.752;4.874;2023-05-02T04:23:21;2.50;;;2.30;;
10934;SDS011;5520;45.752;4.874;2023-05-02T04:25:52;4.70;;;2.43;;
10934;SDS011;5520;45.752;4.874;2023-05-02T04:28:20;2.90;;;2.60;;
10934;SDS011;5520;45.752;4.874;2023-05-02T04:30:48;2.73;;;2.13;;
10934;SDS011;5520;45.752;4.874;2023-05-02T04:33:17;3.67;;;2.37;;
10934;SDS011;5520;45.752;4.874;2023-05-02T04:35:50;4.53;;;2.47;;
10934;SDS011;5520;45.752;4.874;2023-05-02T04:38:33;2.63;;;2.30;;
10934;SDS011;5520;45.752;4.874;2023-05-02T04:41:04;3.13;;;2.33;;
10934;SDS011;5520;45.752;4.874;2023-05-02T04:46:56;4.63;;;2.40;;
10934;SDS011;5520;45.752;4.874;2023-05-02T04:49:24;2.87;;;2.20;;
10934;SDS011;5520;45.752;4.874;2023-05-02T04:51:53;3.70;;;2.77;;
10934;SDS011;5520;45.752;4.874;2023-05-02T04:54:21;2.50;;;2.30;;
10934;SDS011;5520;45.752;4.874;2023-05-02T04:56:49;4.17;;;2.80;;
10934;SDS011;5520;45.752;4.874;2023-05-02T04:59:17;3.57;;;2.60;;
10934;SDS011;5520;45.752;4.874;2023-05-02T05:01:45;2.97;;;2.53;;
10934;SDS011;5520;45.752;4.874;2023-05-02T05:04:13;2.80;;;2.40;;
10934;SDS011;5520;45.752;4.874;2023-05-02T05:06:41;3.10;;;2.70;;
10934;SDS011;5520;45.752;4.874;2023-05-02T05:09:11;5.83;;;2.30;;
10934;SDS011;5520;45.752;4.874;2023-05-02T05:11:39;3.20;;;2.63;;
10934;SDS011;5520;45.752;4.874;2023-05-02T05:14:08;5.07;;;2.60;;
10934;SDS011;5520;45.752;4.874;2023-05-02T05:16:36;4.10;;;2.80;;
10934;SDS011;5520;45.752;4.874;2023-05-02T05:19:04;4.33;;;2.63;;
10934;SDS011;5520;45.752;4.874;2023-05-02T05:21:32;2.70;;;2.50;;
10934;SDS011;5520;45.752;4.874;2023-05-02T05:24:00;4.47;;;3.10;;
10934;SDS011;5520;45.752;4.874;2023-05-02T05:26:29;4.20;;;3.17;;
10934;SDS011;5520;45.752;4.874;2023-05-02T05:28:57;5.53;;;2.93;;
10934;SDS011;5520;45.752;4.874;2023-05-02T05:31:25;3.43;;;3.13;;
10934;SDS011;5520;45.752;4.874;2023-05-02T05:33:53;3.27;;;2.43;;
10934;SDS011;5520;45.752;4.874;2023-05-02T05:36:21;6.20;;;3.00;;
10934;SDS011;5520;45.752;4.874;2023-05-02T05:38:49;5.23;;;2.80;;
10934;SDS011;5520;45.752;4.874;2023-05-02T05:41:17;4.57;;;2.80;;
10934;SDS011;5520;45.752;4.874;2023-05-02T05:43:47;4.13;;;3.03;;
10934;SDS011;5520;45.752;4.874;2023-05-02T05:46:15;5.47;;;3.33;;
10934;SDS011;5520;45.752;4.874;2023-05-02T05:48:43;4.87;;;2.83;;
10934;SDS011;5520;45.752;4.874;2023-05-02T05:51:10;6.03;;;2.83;;
10934;SDS011;5520;45.752;4.874;2023-05-02T05:53:39;5.27;;;3.10;;
10934;SDS011;5520;45.752;4.874;2023-05-02T05:56:07;5.57;;;2.90;;
10934;SDS011;5520;45.752;4.874;2023-05-02T05:58:35;5.10;;;2.77;;
10934;SDS011;5520;45.752;4.874;2023-05-02T06:01:04;5.43;;;3.17;;
10934;SDS011;5520;45.752;4.874;2023-05-02T06:03:33;3.33;;;2.83;;
10934;SDS011;5520;45.752;4.874;2023-05-02T06:06:01;5.27;;;3.40;;
10934;SDS011;5520;45.752;4.874;2023-05-02T06:08:29;4.50;;;3.40;;
10934;SDS011;5520;45.752;4.874;2023-05-02T06:10:57;4.67;;;2.80;;
10934;SDS011;5520;45.752;4.874;2023-05-02T06:13:25;4.63;;;3.27;;
10934;SDS011;5520;45.752;4.874;2023-05-02T06:15:53;5.73;;;3.30;;
10934;SDS011;5520;45.752;4.874;2023-05-02T06:18:22;4.87;;;3.20;;
10934;SDS011;5520;45.752;4.874;2023-05-02T06:20:50;5.17;;;2.93;;
10934;SDS011;5520;45.752;4.874;2023-05-02T06:23:18;6.20;;;3.03;;
10934;SDS011;5520;45.752;4.874;2023-05-02T06:25:46;5.43;;;3.10;;
10934;SDS011;5520;45.752;4.874;2023-05-02T06:28:14;5.87;;;3.33;;
10934;SDS011;5520;45.752;4.874;2023-05-02T06:30:42;4.83;;;3.50;;
10934;SDS011;5520;45.752;4.874;2023-05-02T06:33:10;8.13;;;3.40;;
10934;SDS011;5520;45.752;4.874;2023-05-02T06:35:40;5.57;;;3.43;;
10934;SDS011;5520;45.752;4.874;2023-05-02T06:38:08;3.83;;;2.87;;
10934;SDS011;5520;45.752;4.874;2023-05-02T06:40:35;6.70;;;3.90;;
10934;SDS011;5520;45.752;4.874;2023-05-02T06:43:10;5.97;;;3.70;;
10934;SDS011;5520;45.752;4.874;2023-05-02T06:45:39;6.10;;;3.40;;
10934;SDS011;5520;45.752;4.874;2023-05-02T06:48:07;5.63;;;3.63;;
10934;SDS011;5520;45.752;4.874;2023-05-02T06:50:35;5.60;;;3.87;;
10934;SDS011;5520;45.752;4.874;2023-05-02T06:53:04;5.43;;;3.40;;
10934;SDS011;5520;45.752;4.874;2023-05-02T06:55:32;6.70;;;3.73;;
10934;SDS011;5520;45.752;4.874;2023-05-02T06:58:00;8.27;;;3.97;;
10934;SDS011;5520;45.752;4.874;2023-05-02T07:00:28;6.43;;;3.87;;
10934;SDS011;5520;45.752;4.874;2023-05-02T07:02:56;6.47;;;3.77;;
10934;SDS011;5520;45.752;4.874;2023-05-02T07:05:24;4.77;;;3.80;;
10934;SDS011;5520;45.752;4.874;2023-05-02T07:07:52;7.33;;;4.17;;
10934;SDS011;5520;45.752;4.874;2023-05-02T07:10:22;7.10;;;4.13;;
10934;SDS011;5520;45.752;4.874;2023-05-02T07:12:50;6.60;;;5.13;;
10934;SDS011;5520;45.752;4.874;2023-05-02T07:15:18;8.13;;;5.03;;
10934;SDS011;5520;45.752;4.874;2023-05-02T07:17:46;7.77;;;4.67;;
10934;SDS011;5520;45.752;4.874;2023-05-02T07:20:15;7.43;;;4.80;;
10934;SDS011;5520;45.752;4.874;2023-05-02T07:22:43;10.27;;;4.27;;
10934;SDS011;5520;45.752;4.874;2023-05-02T07:25:11;8.97;;;5.00;;
10934;SDS011;5520;45.752;4.874;2023-05-02T07:27:40;6.33;;;5.00;;
10934;SDS011;5520;45.752;4.874;2023-05-02T07:30:08;6.60;;;5.00;;
10934;SDS011;5520;45.752;4.874;2023-05-02T07:32:36;9.83;;;4.60;;
10934;SDS011;5520;45.752;4.874;2023-05-02T07:35:04;9.23;;;5.00;;
10934;SDS011;5520;45.752;4.874;2023-05-02T07:37:32;9.60;;;5.73;;
10934;SDS011;5520;45.752;4.874;2023-05-02T07:40:01;8.27;;;4.73;;
10934;SDS011;5520;45.752;4.874;2023-05-02T07:42:30;7.37;;;4.20;;
10934;SDS011;5520;45.752;4.874;2023-05-02T07:44:59;6.57;;;4.83;;
10934;SDS011;5520;45.752;4.874;2023-05-02T07:47:27;7.07;;;5.10;;
10934;SDS011;5520;45.752;4.874;2023-05-02T07:49:55;6.47;;;4.70;;
10934;SDS011;5520;45.752;4.874;2023-05-02T07:52:24;8.33;;;5.77;;
10934;SDS011;5520;45.752;4.874;2023-05-02T07:54:52;7.43;;;5.23;;
10934;SDS011;5520;45.752;4.874;2023-05-02T07:57:20;5.67;;;4.90;;
10934;SDS011;5520;45.752;4.874;2023-05-02T07:59:49;6.23;;;5.00;;
10934;SDS011;5520;45.752;4.874;2023-05-02T08:02:18;8.77;;;5.23;;
10934;SDS011;5520;45.752;4.874;2023-05-02T08:04:49;8.47;;;5.47;;
10934;SDS011;5520;45.752;4.874;2023-05-02T08:07:17;7.93;;;5.57;;
10934;SDS011;5520;45.752;4.874;2023-05-02T08:09:45;9.10;;;5.83;;
10934;SDS011;5520;45.752;4.874;2023-05-02T08:12:13;11.97;;;5.77;;
10934;SDS011;5520;45.752;4.874;2023-05-02T08:14:41;8.33;;;5.30;;
10934;SDS011;5520;45.752;4.874;2023-05-02T08:17:09;10.07;;;6.80;;
10934;SDS011;5520;45.752;4.874;2023-05-02T08:19:38;8.90;;;5.93;;
10934;SDS011;5520;45.752;4.874;2023-05-02T08:22:06;9.80;;;6.07;;
10934;SDS011;5520;45.752;4.874;2023-05-02T08:24:34;7.43;;;5.93;;
10934;SDS011;5520;45.752;4.874;2023-05-02T08:27:02;11.53;;;6.17;;
10934;SDS011;5520;45.752;4.874;2023-05-02T08:29:31;9.93;;;6.70;;
10934;SDS011;5520;45.752;4.874;2023-05-02T08:31:58;8.63;;;6.80;;
10934;SDS011;5520;45.752;4.874;2023-05-02T08:34:27;12.90;;;6.20;;
10934;SDS011;5520;45.752;4.874;2023-05-02T08:36:56;7.40;;;6.00;;
10934;SDS011;5520;45.752;4.874;2023-05-02T08:39:24;9.50;;;6.40;;
10934;SDS011;5520;45.752;4.874;2023-05-02T08:41:52;7.47;;;5.93;;
10934;SDS011;5520;45.752;4.874;2023-05-02T08:44:20;8.77;;;6.53;;
10934;SDS011;5520;45.752;4.874;2023-05-02T08:46:48;9.27;;;6.33;;
10934;SDS011;5520;45.752;4.874;2023-05-02T08:49:16;9.63;;;7.07;;
10934;SDS011;5520;45.752;4.874;2023-05-02T08:51:44;9.40;;;7.50;;
10934;SDS011;5520;45.752;4.874;2023-05-02T08:54:15;9.13;;;6.63;;
10934;SDS011;5520;45.752;4.874;2023-05-02T08:56:43;10.13;;;6.77;;
10934;SDS011;5520;45.752;4.874;2023-05-02T08:59:12;10.77;;;7.07;;
10934;SDS011;5520;45.752;4.874;2023-05-02T09:01:41;8.67;;;7.13;;
10934;SDS011;5520;45.752;4.874;2023-05-02T09:04:11;10.47;;;7.77;;
10934;SDS011;5520;45.752;4.874;2023-05-02T09:06:40;9.93;;;6.93;;
10934;SDS011;5520;45.752;4.874;2023-05-02T09:09:08;9.83;;;7.97;;
10934;SDS011;5520;45.752;4.874;2023-05-02T09:11:37;11.53;;;7.07;;
10934;SDS011;5520;45.752;4.874;2023-05-02T09:14:12;12.10;;;7.83;;
10934;SDS011;5520;45.752;4.874;2023-05-02T09:16:41;8.10;;;7.23;;
10934;SDS011;5520;45.752;4.874;2023-05-02T09:19:09;9.70;;;7.37;;
10934;SDS011;5520;45.752;4.874;2023-05-02T09:21:37;8.73;;;7.13;;
10934;SDS011;5520;45.752;4.874;2023-05-02T09:24:14;9.33;;;7.47;;
10934;SDS011;5520;45.752;4.874;2023-05-02T09:26:43;10.13;;;7.40;;
10934;SDS011;5520;45.752;4.874;2023-05-02T09:29:22;10.63;;;7.90;;
10934;SDS011;5520;45.752;4.874;2023-05-02T09:31:50;11.37;;;7.77;;
10934;SDS011;5520;45.752;4.874;2023-05-02T09:34:22;10.67;;;7.63;;
10934;SDS011;5520;45.752;4.874;2023-05-02T09:36:50;9.23;;;8.27;;
10934;SDS011;5520;45.752;4.874;2023-05-02T09:39:20;10.90;;;7.07;;
10934;SDS011;5520;45.752;4.874;2023-05-02T09:41:52;10.50;;;6.73;;
10934;SDS011;5520;45.752;4.874;2023-05-02T09:44:21;10.47;;;7.00;;
10934;SDS011;5520;45.752;4.874;2023-05-02T09:46:50;10.57;;;7.17;;
10934;SDS011;5520;45.752;4.874;2023-05-02T09:49:18;8.77;;;6.97;;
10934;SDS011;5520;45.752;4.874;2023-05-02T09:51:46;8.63;;;6.73;;
10934;SDS011;5520;45.752;4.874;2023-05-02T09:56:59;8.73;;;7.23;;
10934;SDS011;5520;45.752;4.874;2023-05-02T09:59:28;7.93;;;7.10;;
10934;SDS011;5520;45.752;4.874;2023-05-02T10:01:56;9.23;;;7.20;;
10934;SDS011;5520;45.752;4.874;2023-05-02T10:04:24;10.67;;;6.87;;
10934;SDS011;5520;45.752;4.874;2023-05-02T10:06:53;8.57;;;6.57;;
10934;SDS011;5520;45.752;4.874;2023-05-02T10:09:21;7.63;;;6.60;;
10934;SDS011;5520;45.752;4.874;2023-05-02T10:11:52;10.40;;;6.37;;
10934;SDS011;5520;45.752;4.874;2023-05-02T10:14:22;7.63;;;6.37;;
10934;SDS011;5520;45.752;4.874;2023-05-02T10:16:57;10.90;;;7.47;;
10934;SDS011;5520;45.752;4.874;2023-05-02T10:19:28;7.53;;;6.10;;
10934;SDS011;5520;45.752;4.874;2023-05-02T10:21:56;7.53;;;6.30;;
10934;SDS011;5520;45.752;4.874;2023-05-02T10:24:25;7.03;;;6.13;;
10934;SDS011;5520;45.752;4.874;2023-05-02T10:26:53;6.87;;;5.93;;
10934;SDS011;5520;45.752;4.874;2023-05-02T10:29:22;7.60;;;6.47;;
10934;SDS011;5520;45.752;4.874;2023-05-02T10:31:50;7.87;;;5.80;;
10934;SDS011;5520;45.752;4.874;2023-05-02T10:34:19;8.30;;;6.33;;
10934;SDS011;5520;45.752;4.874;2023-05-02T10:36:48;6.67;;;5.90;;
10934;SDS011;5520;45.752;4.874;2023-05-02T10:39:16;7.70;;;6.23;;
10934;SDS011;5520;45.752;4.874;2023-05-02T10:41:45;7.63;;;6.33;;
10934;SDS011;5520;45.752;4.874;2023-05-02T10:44:13;10.23;;;6.43;;
10934;SDS011;5520;45.752;4.874;2023-05-02T10:46:42;11.27;;;5.63;;
10934;SDS011;5520;45.752;4.874;2023-05-02T10:49:12;8.73;;;5.87;;
10934;SDS011;5520;45.752;4.874;2023-05-02T10:51:40;6.57;;;5.80;;
10934;SDS011;5520;45.752;4.874;2023-05-02T10:54:22;9.47;;;6.37;;
10934;SDS011;5520;45.752;4.874;2023-05-02T10:57:06;6.73;;;5.70;;
10934;SDS011;5520;45.752;4.874;2023-05-02T10:59:35;6.97;;;5.93;;
10934;SDS011;5520;45.752;4.874;2023-05-02T11:02:05;6.47;;;5.23;;
10934;SDS011;5520;45.752;4.874;2023-05-02T11:05:00;9.60;;;5.73;;
10934;SDS011;5520;45.752;4.874;2023-05-02T11:07:30;9.83;;;6.07;;
10934;SDS011;5520;45.752;4.874;2023-05-02T11:12:46;7.73;;;5.07;;
10934;SDS011;5520;45.752;4.874;2023-05-02T11:15:14;6.60;;;4.90;;
10934;SDS011;5520;45.752;4.874;2023-05-02T11:18:03;6.30;;;5.70;;
10934;SDS011;5520;45.752;4.874;2023-05-02T11:20:33;7.23;;;6.13;;
10934;SDS011;5520;45.752;4.874;2023-05-02T11:23:21;9.27;;;5.67;;
10934;SDS011;5520;45.752;4.874;2023-05-02T11:25:52;7.77;;;5.70;;
10934;SDS011;5520;45.752;4.874;2023-05-02T11:28:40;6.27;;;5.53;;
10934;SDS011;5520;45.752;4.874;2023-05-02T11:31:09;6.33;;;5.37;;
10934;SDS011;5520;45.752;4.874;2023-05-02T11:33:58;7.97;;;5.30;;
10934;SDS011;5520;45.752;4.874;2023-05-02T11:36:27;7.63;;;5.73;;
10934;SDS011;5520;45.752;4.874;2023-05-02T11:38:55;7.90;;;5.67;;
10934;SDS011;5520;45.752;4.874;2023-05-02T11:41:36;6.80;;;5.50;;
10934;SDS011;5520;45.752;4.874;2023-05-02T11:44:05;5.80;;;5.20;;
10934;SDS011;5520;45.752;4.874;2023-05-02T11:46:32;8.50;;;6.30;;
10934;SDS011;5520;45.752;4.874;2023-05-02T11:49:04;10.57;;;5.50;;
10934;SDS011;5520;45.752;4.874;2023-05-02T11:51:35;7.33;;;6.07;;
10934;SDS011;5520;45.752;4.874;2023-05-02T11:54:03;7.67;;;6.77;;
10934;SDS011;5520;45.752;4.874;2023-05-02T11:56:33;8.27;;;6.43;;
10934;SDS011;5520;45.752;4.874;2023-05-02T11:59:01;7.93;;;6.63;;
10934;SDS011;5520;45.752;4.874;2023-05-02T12:01:29;6.07;;;5.47;;
10934;SDS011;5520;45.752;4.874;2023-05-02T12:04:01;6.40;;;5.80;;
10934;SDS011;5520;45.752;4.874;2023-05-02T12:06:30;10.30;;;6.27;;
10934;SDS011;5520;45.752;4.874;2023-05-02T12:09:08;7.97;;;5.50;;
10934;SDS011;5520;45.752;4.874;2023-05-02T12:11:36;9.40;;;6.53;;
10934;SDS011;5520;45.752;4.874;2023-05-02T12:14:04;6.77;;;5.70;;
10934;SDS011;5520;45.752;4.874;2023-05-02T12:16:32;6.17;;;5.33;;
10934;SDS011;5520;45.752;4.874;2023-05-02T12:19:00;8.23;;;5.13;;
10934;SDS011;5520;45.752;4.874;2023-05-02T12:21:31;9.20;;;4.97;;
10934;SDS011;5520;45.752;4.874;2023-05-02T12:23:59;6.13;;;5.50;;
10934;SDS011;5520;45.752;4.874;2023-05-02T12:26:27;11.20;;;5.60;;
10934;SDS011;5520;45.752;4.874;2023-05-02T12:28:58;5.53;;;5.03;;
10934;SDS011;5520;45.752;4.874;2023-05-02T12:31:28;7.50;;;5.80;;
10934;SDS011;5520;45.752;4.874;2023-05-02T12:33:57;6.13;;;4.83;;
10934;SDS011;5520;45.752;4.874;2023-05-02T12:36:27;6.10;;;4.73;;
10934;SDS011;5520;45.752;4.874;2023-05-02T12:38:57;9.60;;;6.07;;
10934;SDS011;5520;45.752;4.874;2023-05-02T12:41:32;7.97;;;6.30;;
10934;SDS011;5520;45.752;4.874;2023-05-02T12:44:00;8.93;;;6.27;;
10934;SDS011;5520;45.752;4.874;2023-05-02T12:46:28;10.03;;;5.77;;
10934;SDS011;5520;45.752;4.874;2023-05-02T12:49:00;7.97;;;6.10;;
10934;SDS011;5520;45.752;4.874;2023-05-02T12:51:28;8.20;;;6.43;;
10934;SDS011;5520;45.752;4.874;2023-05-02T12:53:59;7.37;;;5.93;;
10934;SDS011;5520;45.752;4.874;2023-05-02T12:56:28;6.57;;;5.87;;
10934;SDS011;5520;45.752;4.874;2023-05-02T12:58:58;7.40;;;5.40;;
10934;SDS011;5520;45.752;4.874;2023-05-02T13:01:31;8.47;;;5.97;;
10934;SDS011;5520;45.752;4.874;2023-05-02T13:04:00;6.67;;;5.97;;
10934;SDS011;5520;45.752;4.874;2023-05-02T13:06:28;6.10;;;5.47;;
10934;SDS011;5520;45.752;4.874;2023-05-02T13:08:56;6.83;;;6.13;;
10934;SDS011;5520;45.752;4.874;2023-05-02T13:11:26;7.77;;;5.40;;
10934;SDS011;5520;45.752;4.874;2023-05-02T13:13:54;5.50;;;5.00;;
10934;SDS011;5520;45.752;4.874;2023-05-02T13:16:22;6.17;;;5.67;;
10934;SDS011;5520;45.752;4.874;2023-05-02T13:18:51;9.37;;;5.77;;
10934;SDS011;5520;45.752;4.874;2023-05-02T13:21:19;7.97;;;4.83;;
10934;SDS011;5520;45.752;4.874;2023-05-02T13:23:47;7.17;;;5.27;;
10934;SDS011;5520;45.752;4.874;2023-05-02T13:26:20;5.20;;;4.70;;
10934;SDS011;5520;45.752;4.874;2023-05-02T13:28:50;5.70;;;4.90;;
10934;SDS011;5520;45.752;4.874;2023-05-02T13:31:18;8.10;;;5.23;;
10934;SDS011;5520;45.752;4.874;2023-05-02T13:33:47;5.20;;;4.60;;
10934;SDS011;5520;45.752;4.874;2023-05-02T13:36:15;5.70;;;4.23;;
10934;SDS011;5520;45.752;4.874;2023-05-02T13:38:43;6.03;;;4.93;;
10934;SDS011;5520;45.752;4.874;2023-05-02T13:41:11;7.27;;;4.73;;
10934;SDS011;5520;45.752;4.874;2023-05-02T13:43:39;7.27;;;4.77;;
10934;SDS011;5520;45.752;4.874;2023-05-02T13:46:09;4.87;;;4.40;;
10934;SDS011;5520;45.752;4.874;2023-05-02T13:48:37;6.87;;;4.43;;
10934;SDS011;5520;45.752;4.874;2023-05-02T13:51:05;4.20;;;3.80;;
10934;SDS011;5520;45.752;4.874;2023-05-02T13:53:33;5.47;;;4.13;;
10934;SDS011;5520;45.752;4.874;2023-05-02T13:56:01;7.10;;;3.87;;
10934;SDS011;5520;45.752;4.874;2023-05-02T13:58:29;4.93;;;3.60;;
10934;SDS011;5520;45.752;4.874;2023-05-02T14:00:56;5.73;;;3.67;;
10934;SDS011;5520;45.752;4.874;2023-05-02T14:03:26;4.17;;;3.63;;
10934;SDS011;5520;45.752;4.874;2023-05-02T14:05:54;5.07;;;3.67;;
10934;SDS011;5520;45.752;4.874;2023-05-02T14:08:22;4.43;;;4.03;;
10934;SDS011;5520;45.752;4.874;2023-05-02T14:10:50;5.63;;;3.93;;
10934;SDS011;5520;45.752;4.874;2023-05-02T14:13:18;4.87;;;3.90;;
10934;SDS011;5520;45.752;4.874;2023-05-02T14:15:46;5.83;;;3.10;;
10934;SDS011;5520;45.752;4.874;2023-05-02T14:18:14;4.87;;;4.00;;
10934;SDS011;5520;45.752;4.874;2023-05-02T14:20:43;5.50;;;4.27;;
10934;SDS011;5520;45.752;4.874;2023-05-02T14:23:11;3.80;;;3.40;;
10934;SDS011;5520;45.752;4.874;2023-05-02T14:25:39;4.83;;;3.47;;
10934;SDS011;5520;45.752;4.874;2023-05-02T14:28:07;4.37;;;3.97;;
10934;SDS011;5520;45.752;4.874;2023-05-02T14:30:35;3.53;;;3.23;;
10934;SDS011;5520;45.752;4.874;2023-05-02T14:33:03;4.13;;;3.30;;
10934;SDS011;5520;45.752;4.874;2023-05-02T14:35:31;3.60;;;3.30;;
10934;SDS011;5520;45.752;4.874;2023-05-02T14:38:00;3.80;;;3.37;;
10934;SDS011;5520;45.752;4.874;2023-05-02T14:40:29;4.17;;;3.70;;
10934;SDS011;5520;45.752;4.874;2023-05-02T14:42:57;4.37;;;3.97;;
10934;SDS011;5520;45.752;4.874;2023-05-02T14:45:25;3.67;;;3.37;;
10934;SDS011;5520;45.752;4.874;2023-05-02T14:47:53;4.23;;;3.53;;
10934;SDS011;5520;45.752;4.874;2023-05-02T14:50:21;4.53;;;3.50;;
10934;SDS011;5520;45.752;4.874;2023-05-02T14:52:52;6.37;;;3.30;;
10934;SDS011;5520;45.752;4.874;2023-05-02T14:55:21;3.50;;;3.00;;
10934;SDS011;5520;45.752;4.874;2023-05-02T14:57:49;6.13;;;3.43;;
10934;SDS011;5520;45.752;4.874;2023-05-02T15:00:17;4.17;;;2.97;;
10934;SDS011;5520;45.752;4.874;2023-05-02T15:02:47;4.57;;;3.10;;
10934;SDS011;5520;45.752;4.874;2023-05-02T15:05:15;4.30;;;3.47;;
10934;SDS011;5520;45.752;4.874;2023-05-02T15:07:47;7.47;;;3.43;;
10934;SDS011;5520;45.752;4.874;2023-05-02T15:10:22;4.40;;;3.23;;
10934;SDS011;5520;45.752;4.874;2023-05-02T15:12:50;3.00;;;2.80;;
10934;SDS011;5520;45.752;4.874;2023-05-02T15:15:19;3.53;;;3.23;;
10934;SDS011;5520;45.752;4.874;2023-05-02T15:17:51;3.83;;;3.13;;
10934;SDS011;5520;45.752;4.874;2023-05-02T15:20:20;3.13;;;2.83;;
10934;SDS011;5520;45.752;4.874;2023-05-02T15:22:52;3.33;;;2.53;;
10934;SDS011;5520;45.752;4.874;2023-05-02T15:25:25;3.87;;;3.00;;
10934;SDS011;5520;45.752;4.874;2023-05-02T15:27:54;3.03;;;2.73;;